createdAt,value
2017-10-05T00:00:40.805Z,66
2017-10-05T00:01:40.825Z,66.09
2017-10-05T00:02:40.850Z,66.86
2017-10-05T00:03:40.865Z,66.54
2017-10-05T00:04:40.887Z,66.86
2017-10-05T00:05:40.909Z,67.24
2017-10-05T00:06:40.925Z,66.92
2017-10-05T00:07:40.954Z,66.54
2017-10-05T00:08:40.968Z,67.43
2017-10-05T00:09:40.992Z,66.96
2017-10-05T00:10:41.013Z,67.69
2017-10-05T00:11:41.034Z,67.97
2017-10-05T00:12:41.060Z,67.78
2017-10-05T00:13:41.082Z,67.91
2017-10-05T00:14:41.098Z,68.35
2017-10-05T00:15:41.122Z,68.55
2017-10-05T00:16:41.162Z,68.55
2017-10-05T00:17:41.161Z,69.12
2017-10-05T00:18:41.176Z,69.12
2017-10-05T00:19:41.199Z,68.93
2017-10-05T00:20:41.219Z,69.02
2017-10-05T00:21:41.237Z,69.21
2017-10-05T00:22:41.258Z,68.74
2017-10-05T00:23:41.287Z,68.93
2017-10-05T00:24:41.297Z,69.02
2017-10-05T00:25:41.318Z,68.93
2017-10-05T00:26:41.351Z,69.25
2017-10-05T00:27:41.409Z,69.06
2017-10-05T00:28:41.379Z,68.87
2017-10-05T00:30:07.132Z,69.41
2017-10-05T00:30:41.421Z,69.31
2017-10-05T00:31:41.442Z,69.21
2017-10-05T00:32:41.462Z,69.31
2017-10-05T00:33:41.790Z,69.5
2017-10-05T00:34:41.714Z,69.21
2017-10-05T00:35:41.867Z,69.44
2017-10-05T00:36:41.542Z,69.5
2017-10-05T00:37:41.561Z,69.44
2017-10-05T00:38:41.588Z,69.54
2017-10-05T00:39:41.602Z,68.96
2017-10-05T00:40:41.622Z,69.44
2017-10-05T00:41:41.650Z,69.44
2017-10-05T00:42:41.719Z,69.73
2017-10-05T00:43:41.683Z,69.44
2017-10-05T00:44:41.705Z,69.35
2017-10-05T00:45:41.724Z,70.01
2017-10-05T00:46:41.746Z,69.64
2017-10-05T00:47:41.765Z,69.44
2017-10-05T00:48:41.791Z,69.25
2017-10-05T00:49:41.806Z,69.06
2017-10-05T00:50:41.828Z,69.54
2017-10-05T00:51:41.846Z,69.54
2017-10-05T00:52:41.866Z,70.11
2017-10-05T00:53:41.901Z,69.92
2017-10-05T00:54:41.910Z,70.11
2017-10-05T00:55:41.929Z,70.5
2017-10-05T00:56:41.948Z,70.11
2017-10-05T00:57:42.021Z,70.5
2017-10-05T00:58:41.991Z,70.4
2017-10-05T00:59:42.010Z,70.4
2017-10-05T01:00:42.340Z,70.5
2017-10-05T01:01:42.058Z,70.87
2017-10-05T01:02:42.076Z,70.78
2017-10-05T01:03:42.401Z,70.68
2017-10-05T01:04:42.112Z,71.36
2017-10-05T01:05:42.149Z,71.07
2017-10-05T01:06:42.153Z,71.36
2017-10-05T01:07:42.174Z,71.07
2017-10-05T01:08:42.200Z,70.68
2017-10-05T01:09:42.232Z,70.97
2017-10-05T01:10:42.236Z,71.07
2017-10-05T01:11:42.257Z,70.97
2017-10-05T01:12:42.332Z,70.01
2017-10-05T01:13:42.297Z,70.5
2017-10-05T01:14:42.317Z,70.59
2017-10-05T01:15:42.646Z,70.4
2017-10-05T01:16:42.364Z,70.21
2017-10-05T01:17:42.382Z,70.01
2017-10-05T01:18:42.405Z,70.21
2017-10-05T01:19:42.421Z,70.34
2017-10-05T01:20:42.441Z,70.24
2017-10-05T01:21:42.461Z,70.72
2017-10-05T01:22:42.482Z,71.07
2017-10-05T01:23:42.506Z,71.26
2017-10-05T01:24:42.532Z,71.16
2017-10-05T01:25:42.552Z,71.07
2017-10-05T01:26:42.566Z,71.64
2017-10-05T01:27:42.592Z,71.83
2017-10-05T01:28:42.606Z,72.12
2017-10-05T01:29:42.628Z,72.22
2017-10-05T01:30:42.698Z,71.64
2017-10-05T01:31:43.106Z,71.64
2017-10-05T01:32:43.077Z,71.55
2017-10-05T01:33:42.713Z,72.02
2017-10-05T01:34:42.731Z,71.83
2017-10-05T01:35:42.752Z,71.83
2017-10-05T01:36:43.090Z,71.64
2017-10-05T01:37:42.801Z,72.02
2017-10-05T01:38:42.813Z,71.36
2017-10-05T01:39:42.833Z,71.73
2017-10-05T01:40:42.857Z,71.97
2017-10-05T01:41:42.884Z,71.58
2017-10-05T01:42:42.896Z,71.2
2017-10-05T01:43:42.921Z,71.58
2017-10-05T01:44:42.942Z,71.3
2017-10-05T01:45:43.323Z,71.77
2017-10-05T01:46:43.008Z,71.68
2017-10-05T01:47:43.022Z,71.58
2017-10-05T01:48:43.030Z,71.68
2017-10-05T01:49:43.043Z,72.02
2017-10-05T01:50:43.071Z,71.97
2017-10-05T01:51:43.085Z,72.41
2017-10-05T01:52:43.109Z,72.88
2017-10-05T01:53:43.127Z,73.17
2017-10-05T01:54:43.147Z,72.88
2017-10-05T01:55:43.165Z,72.79
2017-10-05T01:56:43.187Z,72.98
2017-10-05T01:57:43.208Z,72.22
2017-10-05T01:58:43.226Z,72.44
2017-10-05T01:59:43.247Z,72.44
2017-10-05T02:00:43.272Z,72.34
2017-10-05T02:01:43.345Z,72.06
2017-10-05T02:02:43.314Z,72.16
2017-10-05T02:03:43.335Z,72.34
2017-10-05T02:04:43.351Z,72.06
2017-10-05T02:05:43.375Z,72.06
2017-10-05T02:06:43.392Z,72.16
2017-10-05T02:07:43.413Z,72.25
2017-10-05T02:08:43.435Z,72.16
2017-10-05T02:09:43.488Z,72.25
2017-10-05T02:10:43.481Z,72.92
2017-10-05T02:11:43.498Z,72.83
2017-10-05T02:12:43.522Z,72.44
2017-10-05T02:13:43.539Z,72.63
2017-10-05T02:14:43.558Z,72.92
2017-10-05T02:15:43.579Z,73.5
2017-10-05T02:16:43.602Z,72.83
2017-10-05T02:17:43.988Z,73.08
2017-10-05T02:18:43.642Z,73.21
2017-10-05T02:19:43.663Z,73.5
2017-10-05T02:20:43.682Z,72.54
2017-10-05T02:21:43.707Z,72.44
2017-10-05T02:22:43.725Z,72.63
2017-10-05T02:23:43.747Z,72.73
2017-10-05T02:24:43.772Z,72.83
2017-10-05T02:25:43.803Z,72.92
2017-10-05T02:26:43.809Z,72.63
2017-10-05T02:27:43.827Z,72.34
2017-10-05T02:28:43.861Z,72.54
2017-10-05T02:29:43.878Z,72.34
2017-10-05T02:30:43.894Z,72.44
2017-10-05T02:31:43.917Z,72.83
2017-10-05T02:32:44.041Z,72.54
2017-10-05T02:33:43.954Z,73.02
2017-10-05T02:34:43.974Z,72.77
2017-10-05T02:35:43.998Z,72.44
2017-10-05T02:36:44.014Z,72.16
2017-10-05T02:37:44.043Z,72.09
2017-10-05T02:38:44.065Z,71.71
2017-10-05T02:39:44.088Z,72.25
2017-10-05T02:40:44.101Z,72.25
2017-10-05T02:41:44.121Z,71.71
2017-10-05T02:42:44.143Z,72.06
2017-10-05T02:43:44.160Z,72.19
2017-10-05T02:44:44.184Z,72.29
2017-10-05T02:45:44.215Z,72.25
2017-10-05T02:46:44.229Z,72.25
2017-10-05T02:47:44.301Z,71.81
2017-10-05T02:48:44.267Z,71.77
2017-10-05T02:49:44.289Z,71.71
2017-10-05T02:50:44.315Z,72.06
2017-10-05T02:51:44.333Z,72.06
2017-10-05T02:52:44.354Z,72.44
2017-10-05T02:53:44.385Z,72.38
2017-10-05T02:54:44.398Z,72.06
2017-10-05T02:55:44.417Z,73.05
2017-10-05T02:56:44.435Z,72.09
2017-10-05T02:57:44.460Z,72.09
2017-10-05T02:58:44.478Z,71.71
2017-10-05T02:59:44.499Z,71.91
2017-10-05T03:00:44.836Z,71.33
2017-10-05T03:01:44.541Z,72.29
2017-10-05T03:02:44.616Z,72.29
2017-10-05T03:03:44.589Z,72.38
2017-10-05T03:04:44.920Z,71.62
2017-10-05T03:05:44.628Z,72.19
2017-10-05T03:06:44.648Z,72
2017-10-05T03:07:44.670Z,71.62
2017-10-05T03:08:44.693Z,72.77
2017-10-05T03:09:44.717Z,72.09
2017-10-05T03:10:44.732Z,71.23
2017-10-05T03:11:45.112Z,71.23
2017-10-05T03:12:44.773Z,71.14
2017-10-05T03:13:44.797Z,71.23
2017-10-05T03:14:44.819Z,71.23
2017-10-05T03:15:44.840Z,71.14
2017-10-05T03:16:44.862Z,71.42
2017-10-05T03:17:44.887Z,71.52
2017-10-05T03:18:44.959Z,71.14
2017-10-05T03:19:44.925Z,71.33
2017-10-05T03:20:44.948Z,71.81
2017-10-05T03:21:44.974Z,71.91
2017-10-05T03:22:44.992Z,71.91
2017-10-05T03:23:45.018Z,72.09
2017-10-05T03:24:45.033Z,71.71
2017-10-05T03:25:45.061Z,72.09
2017-10-05T03:26:45.093Z,72.38
2017-10-05T03:27:45.101Z,72.34
2017-10-05T03:28:45.126Z,73.3
2017-10-05T03:29:45.139Z,72.58
2017-10-05T03:30:45.170Z,72.54
2017-10-05T03:31:45.191Z,72.48
2017-10-05T03:32:45.208Z,72.92
2017-10-05T03:33:45.286Z,73.21
2017-10-05T03:34:45.249Z,73.3
2017-10-05T03:35:45.269Z,73.21
2017-10-05T03:36:45.293Z,73.5
2017-10-05T03:37:45.310Z,73.3
2017-10-05T03:38:45.335Z,73.5
2017-10-05T03:39:45.354Z,73.79
2017-10-05T03:40:45.377Z,73.59
2017-10-05T03:41:45.398Z,73.88
2017-10-05T03:42:45.422Z,73.69
2017-10-05T03:43:45.440Z,73.88
2017-10-05T03:44:45.460Z,74.32
2017-10-05T03:45:45.481Z,74.99
2017-10-05T03:46:45.502Z,75.27
2017-10-05T03:47:45.523Z,74.8
2017-10-05T03:48:45.902Z,74.8
2017-10-05T03:49:45.568Z,74.99
2017-10-05T03:50:45.590Z,74.51
2017-10-05T03:51:45.609Z,74.61
2017-10-05T03:52:45.640Z,74.99
2017-10-05T03:53:45.651Z,74.99
2017-10-05T03:54:45.672Z,74.41
2017-10-05T03:55:45.695Z,74.04
2017-10-05T03:56:45.713Z,74.04
2017-10-05T03:57:45.735Z,73.65
2017-10-05T03:58:45.755Z,73.94
2017-10-05T03:59:45.774Z,74.22
2017-10-05T04:00:45.797Z,73.97
2017-10-05T04:01:45.818Z,73.94
2017-10-05T04:02:45.841Z,74.22
2017-10-05T04:03:45.912Z,74.13
2017-10-05T04:04:45.882Z,73.65
2017-10-05T04:05:45.902Z,73.65
2017-10-05T04:06:45.921Z,73.84
2017-10-05T04:07:45.940Z,73.84
2017-10-05T04:08:46.279Z,73.84
2017-10-05T04:09:45.982Z,73.27
2017-10-05T04:10:46.010Z,72.88
2017-10-05T04:11:46.030Z,72.79
2017-10-05T04:12:46.050Z,72.6
2017-10-05T04:13:46.069Z,72.88
2017-10-05T04:14:46.086Z,72.02
2017-10-05T04:15:46.110Z,72.41
2017-10-05T04:16:46.135Z,72.22
2017-10-05T04:17:46.160Z,71.93
2017-10-05T04:18:46.224Z,72.02
2017-10-05T04:19:46.192Z,71.55
2017-10-05T04:20:46.213Z,71.73
2017-10-05T04:21:46.234Z,71.45
2017-10-05T04:22:46.254Z,71.07
2017-10-05T04:23:46.277Z,71.07
2017-10-05T04:24:46.294Z,70.59
2017-10-05T04:25:46.316Z,70.97
2017-10-05T04:26:46.343Z,70.5
2017-10-05T04:27:46.358Z,70.68
2017-10-05T04:28:46.379Z,70.68
2017-10-05T04:29:46.404Z,70.5
2017-10-05T04:30:46.421Z,70.75
2017-10-05T04:31:46.446Z,70.11
2017-10-05T04:32:46.466Z,70.36
2017-10-05T04:33:46.535Z,69.92
2017-10-05T04:34:46.511Z,70.27
2017-10-05T04:35:46.840Z,70.07
2017-10-05T04:36:46.548Z,69.44
2017-10-05T04:37:46.566Z,69.79
2017-10-05T04:38:46.585Z,69.41
2017-10-05T04:39:46.608Z,69.02
2017-10-05T04:40:46.629Z,69.31
2017-10-05T04:41:46.655Z,68.68
2017-10-05T04:42:46.668Z,68.74
2017-10-05T04:43:46.689Z,68.64
2017-10-05T04:44:46.713Z,68.07
2017-10-05T04:45:46.729Z,67.88
2017-10-05T04:46:46.749Z,67.88
2017-10-05T04:47:46.775Z,67.02
2017-10-05T04:48:46.852Z,67.11
2017-10-05T04:49:46.811Z,66.73
2017-10-05T04:50:46.838Z,66.06
2017-10-05T04:51:46.851Z,66.25
2017-10-05T04:52:46.873Z,65.68
2017-10-05T04:53:46.895Z,65.77
2017-10-05T04:54:46.913Z,65.77
2017-10-05T04:55:46.942Z,65.39
2017-10-05T04:56:46.966Z,65.39
2017-10-05T04:57:46.983Z,65.11
2017-10-05T04:58:46.998Z,65.3
2017-10-05T04:59:47.022Z,65.11
2017-10-05T05:00:47.046Z,64.15
2017-10-05T05:01:47.059Z,64.34
2017-10-05T05:02:47.107Z,64.05
2017-10-05T05:03:47.487Z,64.05
2017-10-05T05:04:47.130Z,64.15
2017-10-05T05:05:47.146Z,64.25
2017-10-05T05:06:47.169Z,64.25
2017-10-05T05:07:47.188Z,64.43
2017-10-05T05:08:47.211Z,63.67
2017-10-05T05:09:47.226Z,64.05
2017-10-05T05:10:47.246Z,63.39
2017-10-05T05:11:47.268Z,63.39
2017-10-05T05:12:47.290Z,64.05
2017-10-05T05:13:47.309Z,63.67
2017-10-05T05:14:47.328Z,63.67
2017-10-05T05:15:47.353Z,64.15
2017-10-05T05:16:47.371Z,63.96
2017-10-05T05:17:47.390Z,63.96
2017-10-05T05:18:47.412Z,64.05
2017-10-05T05:19:47.442Z,63.76
2017-10-05T05:20:47.611Z,63.76
2017-10-05T05:21:47.472Z,63.86
2017-10-05T05:22:47.493Z,63.67
2017-10-05T05:23:47.518Z,63.86
2017-10-05T05:24:47.533Z,63.39
2017-10-05T05:25:47.560Z,63.67
2017-10-05T05:26:47.576Z,63.57
2017-10-05T05:27:47.600Z,63.86
2017-10-05T05:28:47.616Z,63.7
2017-10-05T05:29:47.644Z,63.42
2017-10-05T05:30:47.658Z,63.89
2017-10-05T05:31:47.680Z,63.6
2017-10-05T05:32:47.701Z,63.51
2017-10-05T05:33:47.723Z,63.51
2017-10-05T05:34:47.746Z,63.39
2017-10-05T05:35:47.810Z,63.8
2017-10-05T05:36:47.783Z,63.7
2017-10-05T05:37:47.803Z,63.32
2017-10-05T05:38:47.824Z,63.7
2017-10-05T05:39:47.845Z,63.7
2017-10-05T05:40:47.867Z,63.7
2017-10-05T05:41:48.073Z,63.76
2017-10-05T05:42:47.919Z,63.86
2017-10-05T05:43:47.926Z,63.96
2017-10-05T05:44:47.948Z,63.67
2017-10-05T05:45:47.969Z,64.05
2017-10-05T05:46:47.995Z,64.15
2017-10-05T05:47:48.013Z,64.09
2017-10-05T05:48:48.029Z,64.09
2017-10-05T05:49:48.050Z,64.34
2017-10-05T05:50:48.068Z,64.34
2017-10-05T05:51:48.091Z,64.91
2017-10-05T05:52:48.110Z,64.82
2017-10-05T05:53:48.131Z,65.11
2017-10-05T05:54:48.155Z,65.3
2017-10-05T05:55:48.173Z,65.01
2017-10-05T05:56:48.194Z,65.11
2017-10-05T05:57:48.214Z,65.39
2017-10-05T05:58:48.243Z,65.01
2017-10-05T05:59:48.562Z,64.82
2017-10-05T06:00:48.277Z,65.11
2017-10-05T06:01:48.294Z,65.11
2017-10-05T06:02:48.317Z,65.3
2017-10-05T06:03:48.335Z,65.68
2017-10-05T06:04:48.355Z,65.68
2017-10-05T06:05:48.380Z,65.48
2017-10-05T06:06:48.397Z,65.77
2017-10-05T06:07:48.467Z,65.3
2017-10-05T06:08:48.440Z,65.58
2017-10-05T06:09:48.463Z,65.68
2017-10-05T06:10:48.480Z,65.01
2017-10-05T06:11:48.500Z,65.58
2017-10-05T06:12:48.519Z,65.52
2017-10-05T06:13:48.540Z,65.48
2017-10-05T06:14:48.566Z,65.58
2017-10-05T06:15:48.585Z,65.48
2017-10-05T06:16:48.921Z,65.48
2017-10-05T06:17:48.621Z,65.87
2017-10-05T06:18:48.641Z,65.61
2017-10-05T06:19:48.663Z,65.3
2017-10-05T06:20:48.710Z,65.48
2017-10-05T06:21:48.705Z,65.14
2017-10-05T06:22:48.725Z,65.9
2017-10-05T06:23:48.748Z,65.14
2017-10-05T06:24:48.819Z,64.95
2017-10-05T06:25:48.792Z,65.14
2017-10-05T06:26:48.816Z,65.04
2017-10-05T06:27:48.830Z,64.85
2017-10-05T06:28:48.855Z,64.85
2017-10-05T06:29:48.878Z,65.33
2017-10-05T06:30:48.891Z,65.23
2017-10-05T06:31:48.926Z,64.66
2017-10-05T06:32:48.934Z,64.66
2017-10-05T06:33:48.954Z,65.61
2017-10-05T06:34:48.974Z,65.04
2017-10-05T06:35:49.004Z,65.42
2017-10-05T06:36:49.031Z,64.85
2017-10-05T06:37:49.043Z,65.42
2017-10-05T06:38:49.059Z,65.14
2017-10-05T06:39:49.084Z,64.95
2017-10-05T06:40:49.104Z,64.66
2017-10-05T06:41:49.124Z,65.23
2017-10-05T06:42:49.146Z,65.04
2017-10-05T06:43:49.165Z,65.14
2017-10-05T06:44:49.184Z,65.04
2017-10-05T06:45:49.205Z,64.22
2017-10-05T06:46:49.226Z,64.69
2017-10-05T06:47:49.247Z,64.66
2017-10-05T06:48:49.578Z,64.47
2017-10-05T06:49:49.293Z,64.18
2017-10-05T06:50:49.308Z,64.09
2017-10-05T06:51:49.332Z,64.22
2017-10-05T06:52:49.350Z,64.31
2017-10-05T06:53:49.693Z,64.31
2017-10-05T06:54:49.391Z,63.93
2017-10-05T06:55:49.412Z,63.64
2017-10-05T06:56:49.752Z,63.64
2017-10-05T06:57:49.457Z,63.73
2017-10-05T06:58:49.495Z,63.73
2017-10-05T06:59:49.499Z,62.87
2017-10-05T07:00:49.517Z,63.16
2017-10-05T07:01:49.592Z,63.29
2017-10-05T07:02:49.563Z,63.1
2017-10-05T07:03:49.583Z,63
2017-10-05T07:04:49.609Z,63.19
2017-10-05T07:05:49.625Z,63
2017-10-05T07:06:49.647Z,62.23
2017-10-05T07:07:49.668Z,62.04
2017-10-05T07:08:49.699Z,62.33
2017-10-05T07:09:50.058Z,62.04
2017-10-05T07:10:49.730Z,62.14
2017-10-05T07:11:49.754Z,61.94
2017-10-05T07:12:49.776Z,62.23
2017-10-05T07:13:49.797Z,62.04
2017-10-05T07:14:49.818Z,62.14
2017-10-05T07:15:49.894Z,62.23
2017-10-05T07:16:49.865Z,62.23
2017-10-05T07:17:49.884Z,62.04
2017-10-05T07:18:49.910Z,61.66
2017-10-05T07:19:49.930Z,62.23
2017-10-05T07:20:50.002Z,61.85
2017-10-05T07:21:49.973Z,61.85
2017-10-05T07:22:49.990Z,61.18
2017-10-05T07:23:50.011Z,61.5
2017-10-05T07:24:50.034Z,61.28
2017-10-05T07:25:50.068Z,60.35
2017-10-05T07:26:50.085Z,60.06
2017-10-05T07:27:50.099Z,60.83
2017-10-05T07:28:50.121Z,60.25
2017-10-05T07:29:50.143Z,60.44
2017-10-05T07:30:50.164Z,59.77
2017-10-05T07:31:50.186Z,59.58
2017-10-05T07:32:50.210Z,59.68
2017-10-05T07:33:50.230Z,59.3
2017-10-05T07:34:50.254Z,58.81
2017-10-05T07:35:50.323Z,58.62
2017-10-05T07:36:50.297Z,58.72
2017-10-05T07:37:50.325Z,58.37
2017-10-05T07:38:50.342Z,58.37
2017-10-05T07:39:50.364Z,57.98
2017-10-05T07:40:50.437Z,58.08
2017-10-05T07:41:50.405Z,58.08
2017-10-05T07:42:50.435Z,57.89
2017-10-05T07:43:50.447Z,57.41
2017-10-05T07:44:50.477Z,56.35
2017-10-05T07:45:50.494Z,57.03
2017-10-05T07:46:50.828Z,57.12
2017-10-05T07:47:50.541Z,57.12
2017-10-05T07:48:50.561Z,56.93
2017-10-05T07:49:50.590Z,57.21
2017-10-05T07:50:50.605Z,56.83
2017-10-05T07:51:50.630Z,55.78
2017-10-05T07:52:50.649Z,55.97
2017-10-05T07:53:50.674Z,55.68
2017-10-05T07:54:50.700Z,55.9
2017-10-05T07:55:50.722Z,55.33
2017-10-05T07:56:51.107Z,56
2017-10-05T07:57:50.771Z,55.9
2017-10-05T07:58:50.790Z,55.8
2017-10-05T07:59:50.821Z,55.9
2017-10-05T08:00:50.834Z,55.52
2017-10-05T08:01:50.857Z,55.04
2017-10-05T08:02:50.877Z,54.85
2017-10-05T08:03:50.900Z,54.56
2017-10-05T08:04:50.922Z,54.17
2017-10-05T08:05:50.947Z,53.7
2017-10-05T08:06:50.971Z,53.24
2017-10-05T08:07:51.000Z,53.05
2017-10-05T08:08:51.041Z,52.76
2017-10-05T08:09:51.341Z,51.9
2017-10-05T08:10:51.057Z,52.09
2017-10-05T08:11:51.083Z,52
2017-10-05T08:12:51.103Z,52.19
2017-10-05T08:13:51.129Z,51.81
2017-10-05T08:14:51.162Z,51.73
2017-10-05T08:15:52.373Z,51.16
2017-10-05T08:16:51.197Z,50.78
2017-10-05T08:17:51.223Z,50.39
2017-10-05T08:18:51.245Z,49.62
2017-10-05T08:19:51.265Z,49.72
2017-10-05T08:20:51.286Z,48.66
2017-10-05T08:21:51.324Z,49.46
2017-10-05T08:22:51.343Z,47.92
2017-10-05T08:23:51.363Z,47.8
2017-10-05T08:24:51.382Z,46.36
2017-10-05T08:25:51.403Z,46.55
2017-10-05T08:26:51.429Z,46.77
2017-10-05T08:27:51.454Z,46.48
2017-10-05T08:28:51.477Z,46.38
2017-10-05T08:29:51.498Z,46.48
2017-10-05T08:30:51.576Z,45.81
2017-10-05T08:31:51.551Z,45.61
2017-10-05T08:32:51.569Z,45.81
2017-10-05T08:33:51.600Z,45.71
2017-10-05T08:34:51.623Z,45.23
2017-10-05T08:35:51.639Z,45.32
2017-10-05T08:36:51.661Z,44.2
2017-10-05T08:37:51.690Z,43.81
2017-10-05T08:38:52.032Z,43.81
2017-10-05T08:39:51.737Z,42.85
2017-10-05T08:40:51.757Z,42.66
2017-10-05T08:41:51.783Z,42.37
2017-10-05T08:42:51.804Z,42.66
2017-10-05T08:43:51.828Z,42.56
2017-10-05T08:44:52.167Z,43.04
2017-10-05T08:45:51.880Z,42.47
2017-10-05T08:46:51.897Z,41.72
2017-10-05T08:47:51.920Z,41.41
2017-10-05T08:48:52.268Z,41.6
2017-10-05T08:49:51.967Z,41.6
2017-10-05T08:50:51.995Z,40.85
2017-10-05T08:51:52.019Z,41.05
2017-10-05T08:52:52.041Z,40.85
2017-10-05T08:53:52.067Z,41.14
2017-10-05T08:54:52.086Z,40.95
2017-10-05T08:55:52.116Z,40.85
2017-10-05T08:56:52.144Z,40.47
2017-10-05T08:57:52.161Z,39.62
2017-10-05T08:58:52.188Z,39.33
2017-10-05T08:59:52.208Z,39.14
2017-10-05T09:00:52.231Z,38.76
2017-10-05T09:01:52.254Z,38.74
2017-10-05T09:02:52.275Z,38.09
2017-10-05T09:03:52.306Z,37.87
2017-10-05T09:04:52.323Z,37.97
2017-10-05T09:05:52.356Z,38.16
2017-10-05T09:06:52.686Z,37.87
2017-10-05T09:07:52.398Z,37.39
2017-10-05T09:08:52.424Z,36.72
2017-10-05T09:09:52.449Z,36.53
2017-10-05T09:10:52.484Z,35.85
2017-10-05T09:11:52.491Z,35.47
2017-10-05T09:12:52.838Z,35.38
2017-10-05T09:13:52.541Z,35.39
2017-10-05T09:14:52.568Z,35
2017-10-05T09:15:52.589Z,35
2017-10-05T09:16:52.610Z,34.45
2017-10-05T09:17:52.636Z,34.14
2017-10-05T09:18:52.661Z,33.97
2017-10-05T09:19:52.684Z,33.67
2017-10-05T09:20:52.706Z,32.43
2017-10-05T09:21:52.736Z,32.71
2017-10-05T09:22:52.763Z,32.23
2017-10-05T09:23:52.779Z,32.23
2017-10-05T09:24:52.806Z,31.85
2017-10-05T09:25:52.832Z,32.43
2017-10-05T09:26:52.859Z,31.95
2017-10-05T09:27:52.878Z,31.85
2017-10-05T09:28:52.902Z,30.88
2017-10-05T09:29:52.928Z,30.69
2017-10-05T09:30:52.951Z,30.02
2017-10-05T09:31:52.978Z,30.31
2017-10-05T09:32:53.001Z,30.04
2017-10-05T09:33:53.026Z,30.4
2017-10-05T09:34:53.049Z,29.15
2017-10-05T09:35:53.079Z,29.06
2017-10-05T09:36:53.102Z,28.96
2017-10-05T09:37:53.122Z,29.06
2017-10-05T09:38:53.152Z,28.96
2017-10-05T09:39:53.172Z,28.2
2017-10-05T09:40:53.247Z,29.07
2017-10-05T09:41:53.224Z,28.77
2017-10-05T09:42:53.250Z,27.44
2017-10-05T09:43:53.272Z,27.72
2017-10-05T09:44:53.297Z,27.82
2017-10-05T09:45:53.322Z,28.11
2017-10-05T09:46:53.347Z,28.11
2017-10-05T09:47:53.373Z,28.3
2017-10-05T09:48:53.395Z,28.4
2017-10-05T09:49:53.425Z,28.31
2017-10-05T09:50:53.449Z,27.55
2017-10-05T09:51:53.469Z,27.83
2017-10-05T09:52:53.497Z,27.64
2017-10-05T09:53:53.518Z,27.45
2017-10-05T09:54:53.543Z,27.45
2017-10-05T09:55:53.618Z,27.74
2017-10-05T09:56:53.598Z,27.26
2017-10-05T09:57:53.639Z,25.43
2017-10-05T09:58:53.646Z,25.91
2017-10-05T09:59:53.669Z,26.48
2017-10-05T10:00:53.699Z,26.68
2017-10-05T10:01:53.718Z,26.79
2017-10-05T10:02:53.747Z,25.82
2017-10-05T10:03:53.769Z,24.76
2017-10-05T10:04:54.166Z,24.86
2017-10-05T10:05:53.820Z,25.35
2017-10-05T10:06:53.849Z,24.49
2017-10-05T10:07:54.189Z,23.91
2017-10-05T10:08:53.903Z,23.63
2017-10-05T10:09:53.929Z,23.63
2017-10-05T10:10:54.008Z,23.07
2017-10-05T10:11:53.982Z,23.16
2017-10-05T10:12:54.012Z,22.87
2017-10-05T10:13:54.043Z,22.5
2017-10-05T10:14:54.070Z,21.73
2017-10-05T10:15:54.094Z,21.92
2017-10-05T10:16:54.129Z,21.25
2017-10-05T10:17:54.153Z,20.48
2017-10-05T10:18:54.493Z,21.06
2017-10-05T10:19:54.208Z,21.15
2017-10-05T10:20:54.253Z,20.96
2017-10-05T10:21:54.292Z,20.78
2017-10-05T10:22:54.306Z,19.81
2017-10-05T10:23:54.327Z,20.11
2017-10-05T10:24:54.355Z,20.11
2017-10-05T10:25:54.445Z,18.67
2017-10-05T10:26:54.419Z,18.47
2017-10-05T10:27:54.451Z,19.05
2017-10-05T10:28:54.493Z,18.57
2017-10-05T10:29:54.513Z,17.6
2017-10-05T10:30:54.539Z,17.51
2017-10-05T10:31:54.567Z,17.8
2017-10-05T10:32:54.599Z,17.79
2017-10-05T10:33:54.631Z,17.98
2017-10-05T10:34:54.659Z,17.4
2017-10-05T10:35:54.697Z,17.21
2017-10-05T10:36:54.720Z,17.32
2017-10-05T10:37:55.061Z,16.25
2017-10-05T10:38:54.786Z,16.06
2017-10-05T10:39:54.813Z,15.58
2017-10-05T10:40:54.897Z,15.76
2017-10-05T10:41:54.882Z,15.19
2017-10-05T10:42:54.909Z,15.38
2017-10-05T10:43:54.944Z,15.28
2017-10-05T10:44:54.969Z,15.56
2017-10-05T10:45:55.001Z,14.7
2017-10-05T10:46:55.342Z,15.48
2017-10-05T10:47:55.062Z,15.09
2017-10-05T10:48:55.093Z,14.81
2017-10-05T10:49:55.435Z,14.61
2017-10-05T10:50:55.155Z,14.42
2017-10-05T10:51:55.186Z,14.71
2017-10-05T10:52:55.220Z,14.61
2017-10-05T10:53:55.249Z,14.61
2017-10-05T10:54:55.285Z,14.61
2017-10-05T10:55:55.311Z,14.42
2017-10-05T10:56:55.344Z,14.33
2017-10-05T10:57:55.377Z,14.33
2017-10-05T10:58:55.408Z,14.14
2017-10-05T10:59:55.438Z,14.33
2017-10-05T11:00:55.468Z,13.66
2017-10-05T11:01:55.510Z,14.04
2017-10-05T11:02:55.538Z,14.14
2017-10-05T11:03:55.568Z,13.36
2017-10-05T11:04:55.598Z,13.75
2017-10-05T11:05:55.633Z,13.94
2017-10-05T11:06:55.665Z,13.26
2017-10-05T11:07:55.691Z,13.07
2017-10-05T11:08:55.728Z,13.26
2017-10-05T11:09:55.759Z,13.46
2017-10-05T11:10:55.801Z,13.18
2017-10-05T11:11:55.820Z,13.56
2017-10-05T11:12:56.171Z,13.26
2017-10-05T11:13:55.886Z,12.79
2017-10-05T11:14:55.927Z,13.37
2017-10-05T11:15:55.952Z,12.69
2017-10-05T11:16:55.984Z,13.18
2017-10-05T11:17:56.046Z,12.6
2017-10-05T11:18:56.051Z,12.5
2017-10-05T11:19:56.083Z,11.92
2017-10-05T11:20:56.118Z,12.41
2017-10-05T11:21:56.142Z,12.41
2017-10-05T11:22:56.180Z,11.74
2017-10-05T11:23:56.213Z,11.26
2017-10-05T11:24:56.252Z,11.93
2017-10-05T11:25:56.274Z,11.93
2017-10-05T11:26:56.308Z,12.23
2017-10-05T11:27:56.340Z,12.13
2017-10-05T11:28:56.695Z,11.45
2017-10-05T11:29:56.409Z,10.68
2017-10-05T11:30:56.440Z,10.77
2017-10-05T11:31:56.524Z,10.29
2017-10-05T11:32:56.506Z,10
2017-10-05T11:33:56.537Z,10.38
2017-10-05T11:34:56.568Z,10.86
2017-10-05T11:35:56.607Z,10.29
2017-10-05T11:36:56.649Z,10.19
2017-10-05T11:37:56.670Z,9.81
2017-10-05T11:38:56.702Z,10
2017-10-05T11:39:57.111Z,9.8
2017-10-05T11:40:56.776Z,9.8
2017-10-05T11:41:56.809Z,10.09
2017-10-05T11:42:56.841Z,10.38
2017-10-05T11:43:56.892Z,9.8
2017-10-05T11:44:56.903Z,10.19
2017-10-05T11:45:56.936Z,10.86
2017-10-05T11:46:56.969Z,10.86
2017-10-05T11:47:57.005Z,10.96
2017-10-05T11:48:57.034Z,10.1
2017-10-05T11:49:57.074Z,9.71
2017-10-05T11:50:57.102Z,9.62
2017-10-05T11:51:57.135Z,9.61
2017-10-05T11:52:57.168Z,10
2017-10-05T11:53:57.204Z,10.1
2017-10-05T11:54:57.235Z,9.9
2017-10-05T11:55:57.270Z,10
2017-10-05T11:56:57.305Z,10.1
2017-10-05T11:57:57.346Z,9.8
2017-10-05T11:58:57.383Z,9.61
2017-10-05T11:59:57.409Z,9.81
2017-10-05T12:00:57.516Z,10.1
2017-10-05T12:01:57.471Z,9.81
2017-10-05T12:02:57.514Z,9.81
2017-10-05T12:03:57.544Z,10.02
2017-10-05T12:04:57.571Z,9.63
2017-10-05T12:05:57.607Z,9.82
2017-10-05T12:06:57.641Z,9.05
2017-10-05T12:07:57.677Z,8.47
2017-10-05T12:08:57.708Z,8.95
2017-10-05T12:09:57.750Z,8.75
2017-10-05T12:10:57.778Z,8.95
2017-10-05T12:11:57.811Z,8.75
2017-10-05T12:12:57.851Z,8.56
2017-10-05T12:13:57.880Z,8.36
2017-10-05T12:14:57.911Z,8.08
2017-10-05T12:15:58.261Z,8.36
2017-10-05T12:16:57.983Z,8.94
2017-10-05T12:17:58.020Z,9.23
2017-10-05T12:18:58.051Z,9.04
2017-10-05T12:19:58.084Z,8.75
2017-10-05T12:20:58.127Z,8.56
2017-10-05T12:21:58.156Z,8.66
2017-10-05T12:22:58.248Z,8.75
2017-10-05T12:23:58.224Z,8.56
2017-10-05T12:24:58.259Z,8.75
2017-10-05T12:25:58.302Z,8.84
2017-10-05T12:26:58.326Z,8.74
2017-10-05T12:27:58.366Z,8.84
2017-10-05T12:28:58.398Z,8.45
2017-10-05T12:29:58.427Z,8.75
2017-10-05T12:30:58.463Z,8.37
2017-10-05T12:31:58.498Z,7.98
2017-10-05T12:32:58.531Z,8.18
2017-10-05T12:33:58.567Z,8.08
2017-10-05T12:34:58.597Z,8.65
2017-10-05T12:35:58.635Z,8.74
2017-10-05T12:36:58.667Z,9.04
2017-10-05T12:37:58.752Z,8.84
2017-10-05T12:38:58.738Z,9.03
2017-10-05T12:39:58.770Z,9.12
2017-10-05T12:40:58.800Z,9.51
2017-10-05T12:41:58.830Z,10.1
2017-10-05T12:42:58.871Z,10.1
2017-10-05T12:43:58.912Z,9.7
2017-10-05T12:44:58.931Z,10.29
2017-10-05T12:45:58.965Z,10.86
2017-10-05T12:46:59.313Z,11.05
2017-10-05T12:47:59.050Z,10.96
2017-10-05T12:48:59.435Z,11.35
2017-10-05T12:49:59.100Z,11.24
2017-10-05T12:50:59.120Z,11.23
2017-10-05T12:51:59.154Z,11.91
2017-10-05T12:52:59.181Z,12.01
2017-10-05T12:53:59.212Z,12.49
2017-10-05T12:54:59.269Z,12.88
2017-10-05T12:55:59.275Z,12.2
2017-10-05T12:56:59.298Z,12.77
2017-10-05T12:57:59.347Z,12.87